sensor_id;sensor_type;location;lat;lon;timestamp;P1;durP1;ratioP1;P2;durP2;ratioP2
13571;SDS011;6857;53.484;10.216;2022-11-30T00:02:06;68.23;;;34.47;;
13571;SDS011;6857;53.484;10.216;2022-11-30T00:04:31;70.33;;;35.87;;
13571;SDS011;6857;53.484;10.216;2022-11-30T00:06:57;69.90;;;36.57;;
13571;SDS011;6857;53.484;10.216;2022-11-30T00:09:24;66.47;;;33.80;;
13571;SDS011;6857;53.484;10.216;2022-11-30T00:11:50;68.27;;;33.40;;
13571;SDS011;6857;53.484;10.216;2022-11-30T00:14:15;69.33;;;33.90;;
13571;SDS011;6857;53.484;10.216;2022-11-30T00:16:42;69.80;;;32.77;;
13571;SDS011;6857;53.484;10.216;2022-11-30T00:19:08;65.03;;;34.10;;
13571;SDS011;6857;53.484;10.216;2022-11-30T00:21:33;67.53;;;34.23;;
13571;SDS011;6857;53.484;10.216;2022-11-30T00:23:59;68.70;;;34.13;;
13571;SDS011;6857;53.484;10.216;2022-11-30T00:26:25;69.00;;;33.80;;
13571;SDS011;6857;53.484;10.216;2022-11-30T00:28:51;71.27;;;33.80;;
13571;SDS011;6857;53.484;10.216;2022-11-30T00:31:18;68.80;;;33.23;;
13571;SDS011;6857;53.484;10.216;2022-11-30T00:33:45;65.60;;;32.90;;
13571;SDS011;6857;53.484;10.216;2022-11-30T00:36:12;67.10;;;33.87;;
13571;SDS011;6857;53.484;10.216;2022-11-30T00:38:38;68.93;;;35.37;;
13571;SDS011;6857;53.484;10.216;2022-11-30T00:41:04;70.27;;;34.80;;
13571;SDS011;6857;53.484;10.216;2022-11-30T00:43:31;67.77;;;34.97;;
13571;SDS011;6857;53.484;10.216;2022-11-30T00:45:57;67.77;;;33.87;;
13571;SDS011;6857;53.484;10.216;2022-11-30T00:48:23;72.17;;;34.60;;
13571;SDS011;6857;53.484;10.216;2022-11-30T00:50:49;73.30;;;34.30;;
13571;SDS011;6857;53.484;10.216;2022-11-30T00:53:15;71.70;;;34.50;;
13571;SDS011;6857;53.484;10.216;2022-11-30T00:55:41;72.47;;;35.53;;
13571;SDS011;6857;53.484;10.216;2022-11-30T00:58:08;72.83;;;35.97;;
13571;SDS011;6857;53.484;10.216;2022-11-30T01:00:34;68.50;;;33.37;;
13571;SDS011;6857;53.484;10.216;2022-11-30T01:03:00;74.40;;;35.40;;
13571;SDS011;6857;53.484;10.216;2022-11-30T01:05:28;68.83;;;33.63;;
13571;SDS011;6857;53.484;10.216;2022-11-30T01:07:54;71.37;;;34.67;;
13571;SDS011;6857;53.484;10.216;2022-11-30T01:10:20;75.17;;;37.17;;
13571;SDS011;6857;53.484;10.216;2022-11-30T01:12:49;74.93;;;37.57;;
13571;SDS011;6857;53.484;10.216;2022-11-30T01:15:15;81.00;;;39.77;;
13571;SDS011;6857;53.484;10.216;2022-11-30T01:17:41;78.93;;;39.10;;
13571;SDS011;6857;53.484;10.216;2022-11-30T01:20:07;76.67;;;36.93;;
13571;SDS011;6857;53.484;10.216;2022-11-30T01:22:33;72.37;;;34.70;;
13571;SDS011;6857;53.484;10.216;2022-11-30T01:25:00;76.13;;;37.10;;
13571;SDS011;6857;53.484;10.216;2022-11-30T01:27:26;73.37;;;34.67;;
13571;SDS011;6857;53.484;10.216;2022-11-30T01:29:52;71.83;;;34.40;;
13571;SDS011;6857;53.484;10.216;2022-11-30T01:32:18;71.77;;;35.27;;
13571;SDS011;6857;53.484;10.216;2022-11-30T01:34:44;70.30;;;34.90;;
13571;SDS011;6857;53.484;10.216;2022-11-30T01:37:10;70.30;;;35.57;;
13571;SDS011;6857;53.484;10.216;2022-11-30T01:39:36;80.60;;;42.60;;
13571;SDS011;6857;53.484;10.216;2022-11-30T01:42:02;71.40;;;34.33;;
13571;SDS011;6857;53.484;10.216;2022-11-30T01:46:55;66.97;;;33.97;;
13571;SDS011;6857;53.484;10.216;2022-11-30T01:49:30;65.10;;;34.97;;
13571;SDS011;6857;53.484;10.216;2022-11-30T01:52:02;70.27;;;32.90;;
13571;SDS011;6857;53.484;10.216;2022-11-30T01:54:31;68.73;;;32.87;;
13571;SDS011;6857;53.484;10.216;2022-11-30T01:57:02;76.03;;;35.57;;
13571;SDS011;6857;53.484;10.216;2022-11-30T01:59:31;66.20;;;35.23;;
13571;SDS011;6857;53.484;10.216;2022-11-30T02:01:57;74.17;;;33.77;;
13571;SDS011;6857;53.484;10.216;2022-11-30T02:04:24;71.73;;;33.33;;
13571;SDS011;6857;53.484;10.216;2022-11-30T02:06:51;72.80;;;34.73;;
13571;SDS011;6857;53.484;10.216;2022-11-30T02:09:18;65.13;;;33.47;;
13571;SDS011;6857;53.484;10.216;2022-11-30T02:11:44;83.03;;;42.23;;
13571;SDS011;6857;53.484;10.216;2022-11-30T02:14:21;73.33;;;35.43;;
13571;SDS011;6857;53.484;10.216;2022-11-30T02:24:55;73.17;;;35.30;;
13571;SDS011;6857;53.484;10.216;2022-11-30T02:27:29;88.07;;;40.87;;
13571;SDS011;6857;53.484;10.216;2022-11-30T02:32:31;72.50;;;35.27;;
13571;SDS011;6857;53.484;10.216;2022-11-30T02:34:58;76.17;;;37.57;;
13571;SDS011;6857;53.484;10.216;2022-11-30T02:37:26;79.97;;;35.40;;
13571;SDS011;6857;53.484;10.216;2022-11-30T02:39:53;77.90;;;35.90;;
13571;SDS011;6857;53.484;10.216;2022-11-30T02:42:19;77.20;;;35.73;;
13571;SDS011;6857;53.484;10.216;2022-11-30T02:44:48;74.80;;;35.63;;
13571;SDS011;6857;53.484;10.216;2022-11-30T02:49:46;84.87;;;36.50;;
13571;SDS011;6857;53.484;10.216;2022-11-30T02:52:13;78.00;;;36.23;;
13571;SDS011;6857;53.484;10.216;2022-11-30T02:54:40;73.77;;;35.73;;
13571;SDS011;6857;53.484;10.216;2022-11-30T02:57:06;79.10;;;34.93;;
13571;SDS011;6857;53.484;10.216;2022-11-30T02:59:32;82.97;;;38.33;;
13571;SDS011;6857;53.484;10.216;2022-11-30T03:01:58;84.73;;;38.10;;
13571;SDS011;6857;53.484;10.216;2022-11-30T03:04:24;85.17;;;35.90;;
13571;SDS011;6857;53.484;10.216;2022-11-30T03:06:50;86.10;;;37.57;;
13571;SDS011;6857;53.484;10.216;2022-11-30T03:09:16;84.67;;;38.07;;
13571;SDS011;6857;53.484;10.216;2022-11-30T03:11:42;83.90;;;39.13;;
13571;SDS011;6857;53.484;10.216;2022-11-30T03:14:08;81.33;;;38.17;;
13571;SDS011;6857;53.484;10.216;2022-11-30T03:16:35;88.83;;;39.00;;
13571;SDS011;6857;53.484;10.216;2022-11-30T03:19:01;87.90;;;38.37;;
13571;SDS011;6857;53.484;10.216;2022-11-30T03:21:27;83.70;;;36.93;;
13571;SDS011;6857;53.484;10.216;2022-11-30T03:23:53;77.67;;;35.73;;
13571;SDS011;6857;53.484;10.216;2022-11-30T03:26:19;80.57;;;37.80;;
13571;SDS011;6857;53.484;10.216;2022-11-30T03:28:45;84.27;;;36.83;;
13571;SDS011;6857;53.484;10.216;2022-11-30T03:31:11;84.30;;;38.47;;
13571;SDS011;6857;53.484;10.216;2022-11-30T03:33:41;82.57;;;36.53;;
13571;SDS011;6857;53.484;10.216;2022-11-30T03:36:08;82.40;;;35.80;;
13571;SDS011;6857;53.484;10.216;2022-11-30T03:38:34;80.83;;;36.03;;
13571;SDS011;6857;53.484;10.216;2022-11-30T03:41:01;82.90;;;36.27;;
13571;SDS011;6857;53.484;10.216;2022-11-30T03:43:27;73.60;;;35.70;;
13571;SDS011;6857;53.484;10.216;2022-11-30T03:45:53;81.37;;;35.87;;
13571;SDS011;6857;53.484;10.216;2022-11-30T03:48:19;83.10;;;37.73;;
13571;SDS011;6857;53.484;10.216;2022-11-30T03:50:45;80.63;;;37.30;;
13571;SDS011;6857;53.484;10.216;2022-11-30T03:53:14;82.50;;;36.73;;
13571;SDS011;6857;53.484;10.216;2022-11-30T03:55:40;81.63;;;37.67;;
13571;SDS011;6857;53.484;10.216;2022-11-30T03:58:06;77.97;;;35.43;;
13571;SDS011;6857;53.484;10.216;2022-11-30T04:00:32;79.90;;;35.87;;
13571;SDS011;6857;53.484;10.216;2022-11-30T04:02:58;77.67;;;33.80;;
13571;SDS011;6857;53.484;10.216;2022-11-30T04:05:24;71.37;;;33.83;;
13571;SDS011;6857;53.484;10.216;2022-11-30T04:07:50;77.53;;;34.53;;
13571;SDS011;6857;53.484;10.216;2022-11-30T04:10:15;80.57;;;34.80;;
13571;SDS011;6857;53.484;10.216;2022-11-30T04:12:41;84.07;;;36.70;;
13571;SDS011;6857;53.484;10.216;2022-11-30T04:15:07;80.53;;;35.70;;
13571;SDS011;6857;53.484;10.216;2022-11-30T04:17:34;77.53;;;32.77;;
13571;SDS011;6857;53.484;10.216;2022-11-30T04:20:00;70.97;;;32.57;;
13571;SDS011;6857;53.484;10.216;2022-11-30T04:22:25;72.63;;;33.67;;
13571;SDS011;6857;53.484;10.216;2022-11-30T04:24:51;72.30;;;33.00;;
13571;SDS011;6857;53.484;10.216;2022-11-30T04:27:17;74.33;;;32.23;;
13571;SDS011;6857;53.484;10.216;2022-11-30T04:29:43;69.07;;;32.87;;
13571;SDS011;6857;53.484;10.216;2022-11-30T04:32:09;72.30;;;32.43;;
13571;SDS011;6857;53.484;10.216;2022-11-30T04:34:35;74.70;;;34.93;;
13571;SDS011;6857;53.484;10.216;2022-11-30T04:37:01;66.37;;;31.10;;
13571;SDS011;6857;53.484;10.216;2022-11-30T04:39:27;72.17;;;33.60;;
13571;SDS011;6857;53.484;10.216;2022-11-30T04:41:53;65.13;;;32.57;;
13571;SDS011;6857;53.484;10.216;2022-11-30T04:44:19;75.37;;;35.97;;
13571;SDS011;6857;53.484;10.216;2022-11-30T04:46:45;67.50;;;31.13;;
13571;SDS011;6857;53.484;10.216;2022-11-30T04:49:11;71.47;;;31.90;;
13571;SDS011;6857;53.484;10.216;2022-11-30T04:51:37;70.50;;;31.97;;
13571;SDS011;6857;53.484;10.216;2022-11-30T04:54:03;66.10;;;31.07;;
13571;SDS011;6857;53.484;10.216;2022-11-30T04:56:32;59.73;;;29.03;;
13571;SDS011;6857;53.484;10.216;2022-11-30T04:58:59;61.50;;;30.33;;
13571;SDS011;6857;53.484;10.216;2022-11-30T05:01:25;65.57;;;31.10;;
13571;SDS011;6857;53.484;10.216;2022-11-30T05:03:51;62.47;;;30.97;;
13571;SDS011;6857;53.484;10.216;2022-11-30T05:06:17;61.83;;;31.73;;
13571;SDS011;6857;53.484;10.216;2022-11-30T05:08:43;58.57;;;29.80;;
13571;SDS011;6857;53.484;10.216;2022-11-30T05:11:09;62.03;;;31.03;;
13571;SDS011;6857;53.484;10.216;2022-11-30T05:13:35;64.13;;;29.97;;
13571;SDS011;6857;53.484;10.216;2022-11-30T05:16:01;62.60;;;31.77;;
13571;SDS011;6857;53.484;10.216;2022-11-30T05:18:27;65.57;;;29.27;;
13571;SDS011;6857;53.484;10.216;2022-11-30T05:20:55;62.27;;;29.37;;
13571;SDS011;6857;53.484;10.216;2022-11-30T05:23:21;64.50;;;31.37;;
13571;SDS011;6857;53.484;10.216;2022-11-30T05:25:47;56.67;;;29.47;;
13571;SDS011;6857;53.484;10.216;2022-11-30T05:28:13;58.50;;;28.67;;
13571;SDS011;6857;53.484;10.216;2022-11-30T05:30:39;66.43;;;31.13;;
13571;SDS011;6857;53.484;10.216;2022-11-30T05:33:06;59.47;;;29.10;;
13571;SDS011;6857;53.484;10.216;2022-11-30T05:35:32;60.70;;;28.80;;
13571;SDS011;6857;53.484;10.216;2022-11-30T05:37:58;63.50;;;30.30;;
13571;SDS011;6857;53.484;10.216;2022-11-30T05:40:24;65.37;;;30.60;;
13571;SDS011;6857;53.484;10.216;2022-11-30T05:42:55;57.40;;;28.47;;
13571;SDS011;6857;53.484;10.216;2022-11-30T05:45:21;65.47;;;30.80;;
13571;SDS011;6857;53.484;10.216;2022-11-30T05:47:47;56.50;;;28.40;;
13571;SDS011;6857;53.484;10.216;2022-11-30T05:50:13;56.87;;;27.87;;
13571;SDS011;6857;53.484;10.216;2022-11-30T05:52:39;68.73;;;31.17;;
13571;SDS011;6857;53.484;10.216;2022-11-30T05:55:05;58.00;;;27.27;;
13571;SDS011;6857;53.484;10.216;2022-11-30T05:57:34;52.13;;;26.63;;
13571;SDS011;6857;53.484;10.216;2022-11-30T06:00:02;59.40;;;28.77;;
13571;SDS011;6857;53.484;10.216;2022-11-30T06:02:28;65.37;;;29.90;;
13571;SDS011;6857;53.484;10.216;2022-11-30T06:04:54;57.60;;;28.63;;
13571;SDS011;6857;53.484;10.216;2022-11-30T06:07:20;63.30;;;29.17;;
13571;SDS011;6857;53.484;10.216;2022-11-30T06:09:46;65.40;;;29.37;;
13571;SDS011;6857;53.484;10.216;2022-11-30T06:12:12;63.17;;;30.87;;
13571;SDS011;6857;53.484;10.216;2022-11-30T06:14:38;59.47;;;28.60;;
13571;SDS011;6857;53.484;10.216;2022-11-30T06:17:04;57.33;;;27.30;;
13571;SDS011;6857;53.484;10.216;2022-11-30T06:19:30;55.20;;;27.17;;
13571;SDS011;6857;53.484;10.216;2022-11-30T06:21:56;55.50;;;27.63;;
13571;SDS011;6857;53.484;10.216;2022-11-30T06:24:22;59.97;;;28.90;;
13571;SDS011;6857;53.484;10.216;2022-11-30T06:26:48;59.20;;;29.03;;
13571;SDS011;6857;53.484;10.216;2022-11-30T06:29:13;56.00;;;27.67;;
13571;SDS011;6857;53.484;10.216;2022-11-30T06:31:39;84.30;;;43.37;;
13571;SDS011;6857;53.484;10.216;2022-11-30T06:34:05;54.13;;;28.40;;
13571;SDS011;6857;53.484;10.216;2022-11-30T06:36:31;59.73;;;31.70;;
13571;SDS011;6857;53.484;10.216;2022-11-30T06:38:57;53.43;;;27.33;;
13571;SDS011;6857;53.484;10.216;2022-11-30T06:41:23;52.37;;;27.43;;
13571;SDS011;6857;53.484;10.216;2022-11-30T06:43:50;50.20;;;26.30;;
13571;SDS011;6857;53.484;10.216;2022-11-30T06:46:16;50.77;;;26.97;;
13571;SDS011;6857;53.484;10.216;2022-11-30T06:48:42;51.40;;;27.23;;
13571;SDS011;6857;53.484;10.216;2022-11-30T06:51:12;50.43;;;25.90;;
13571;SDS011;6857;53.484;10.216;2022-11-30T06:53:38;51.60;;;26.03;;
13571;SDS011;6857;53.484;10.216;2022-11-30T06:56:07;49.73;;;26.30;;
13571;SDS011;6857;53.484;10.216;2022-11-30T06:58:34;45.33;;;24.20;;
13571;SDS011;6857;53.484;10.216;2022-11-30T07:01:00;50.00;;;24.83;;
13571;SDS011;6857;53.484;10.216;2022-11-30T07:03:26;43.87;;;25.50;;
13571;SDS011;6857;53.484;10.216;2022-11-30T07:05:52;47.50;;;24.90;;
13571;SDS011;6857;53.484;10.216;2022-11-30T07:08:18;45.40;;;23.43;;
13571;SDS011;6857;53.484;10.216;2022-11-30T07:10:45;46.43;;;23.73;;
13571;SDS011;6857;53.484;10.216;2022-11-30T07:13:12;46.73;;;24.63;;
13571;SDS011;6857;53.484;10.216;2022-11-30T07:15:38;45.20;;;22.97;;
13571;SDS011;6857;53.484;10.216;2022-11-30T07:18:05;44.97;;;24.23;;
13571;SDS011;6857;53.484;10.216;2022-11-30T07:20:31;45.57;;;24.17;;
13571;SDS011;6857;53.484;10.216;2022-11-30T07:22:57;45.27;;;23.13;;
13571;SDS011;6857;53.484;10.216;2022-11-30T07:25:43;45.03;;;23.73;;
13571;SDS011;6857;53.484;10.216;2022-11-30T07:28:28;45.70;;;24.67;;
13571;SDS011;6857;53.484;10.216;2022-11-30T07:30:54;43.50;;;22.33;;
13571;SDS011;6857;53.484;10.216;2022-11-30T07:33:20;41.30;;;21.90;;
13571;SDS011;6857;53.484;10.216;2022-11-30T07:35:46;39.07;;;21.53;;
13571;SDS011;6857;53.484;10.216;2022-11-30T07:38:12;39.43;;;21.87;;
13571;SDS011;6857;53.484;10.216;2022-11-30T07:40:38;35.87;;;20.87;;
13571;SDS011;6857;53.484;10.216;2022-11-30T07:43:04;40.83;;;22.70;;
13571;SDS011;6857;53.484;10.216;2022-11-30T07:45:30;32.57;;;19.87;;
13571;SDS011;6857;53.484;10.216;2022-11-30T07:47:57;37.07;;;20.90;;
13571;SDS011;6857;53.484;10.216;2022-11-30T07:50:23;37.47;;;20.53;;
13571;SDS011;6857;53.484;10.216;2022-11-30T07:52:49;34.60;;;19.50;;
13571;SDS011;6857;53.484;10.216;2022-11-30T07:55:15;33.40;;;19.33;;
13571;SDS011;6857;53.484;10.216;2022-11-30T07:57:43;33.40;;;19.27;;
13571;SDS011;6857;53.484;10.216;2022-11-30T08:00:09;35.73;;;20.77;;
13571;SDS011;6857;53.484;10.216;2022-11-30T08:02:36;36.23;;;19.20;;
13571;SDS011;6857;53.484;10.216;2022-11-30T08:05:02;32.00;;;19.13;;
13571;SDS011;6857;53.484;10.216;2022-11-30T08:07:28;28.67;;;17.97;;
13571;SDS011;6857;53.484;10.216;2022-11-30T08:09:53;32.73;;;19.00;;
13571;SDS011;6857;53.484;10.216;2022-11-30T08:12:19;32.90;;;18.73;;
13571;SDS011;6857;53.484;10.216;2022-11-30T08:14:45;31.70;;;19.23;;
13571;SDS011;6857;53.484;10.216;2022-11-30T08:17:11;31.90;;;19.00;;
13571;SDS011;6857;53.484;10.216;2022-11-30T08:19:37;28.53;;;18.57;;
13571;SDS011;6857;53.484;10.216;2022-11-30T08:22:03;29.03;;;17.87;;
13571;SDS011;6857;53.484;10.216;2022-11-30T08:24:29;32.07;;;18.53;;
13571;SDS011;6857;53.484;10.216;2022-11-30T08:26:55;29.63;;;18.47;;
13571;SDS011;6857;53.484;10.216;2022-11-30T08:29:21;29.90;;;18.27;;
13571;SDS011;6857;53.484;10.216;2022-11-30T08:31:47;30.20;;;17.33;;
13571;SDS011;6857;53.484;10.216;2022-11-30T08:34:13;29.20;;;17.83;;
13571;SDS011;6857;53.484;10.216;2022-11-30T08:36:39;29.40;;;18.67;;
13571;SDS011;6857;53.484;10.216;2022-11-30T08:39:06;30.77;;;18.73;;
13571;SDS011;6857;53.484;10.216;2022-11-30T08:41:33;33.83;;;19.23;;
13571;SDS011;6857;53.484;10.216;2022-11-30T08:43:59;28.77;;;17.97;;
13571;SDS011;6857;53.484;10.216;2022-11-30T08:46:26;30.17;;;17.77;;
13571;SDS011;6857;53.484;10.216;2022-11-30T08:48:52;29.20;;;17.27;;
13571;SDS011;6857;53.484;10.216;2022-11-30T08:51:18;31.50;;;18.37;;
13571;SDS011;6857;53.484;10.216;2022-11-30T08:53:45;30.77;;;18.83;;
13571;SDS011;6857;53.484;10.216;2022-11-30T08:56:20;35.27;;;21.93;;
13571;SDS011;6857;53.484;10.216;2022-11-30T08:58:49;32.13;;;20.13;;
13571;SDS011;6857;53.484;10.216;2022-11-30T09:01:16;32.87;;;19.10;;
13571;SDS011;6857;53.484;10.216;2022-11-30T09:03:44;30.00;;;18.50;;
13571;SDS011;6857;53.484;10.216;2022-11-30T09:06:11;30.87;;;18.27;;
13571;SDS011;6857;53.484;10.216;2022-11-30T09:08:38;31.80;;;18.30;;
13571;SDS011;6857;53.484;10.216;2022-11-30T09:11:08;31.13;;;18.87;;
13571;SDS011;6857;53.484;10.216;2022-11-30T09:13:34;30.53;;;19.17;;
13571;SDS011;6857;53.484;10.216;2022-11-30T09:16:00;35.13;;;19.97;;
13571;SDS011;6857;53.484;10.216;2022-11-30T09:18:26;35.77;;;20.50;;
13571;SDS011;6857;53.484;10.216;2022-11-30T09:20:52;35.07;;;20.77;;
13571;SDS011;6857;53.484;10.216;2022-11-30T09:23:18;37.13;;;21.67;;
13571;SDS011;6857;53.484;10.216;2022-11-30T09:25:44;35.20;;;21.07;;
13571;SDS011;6857;53.484;10.216;2022-11-30T09:28:10;36.23;;;21.47;;
13571;SDS011;6857;53.484;10.216;2022-11-30T09:30:36;39.97;;;22.80;;
13571;SDS011;6857;53.484;10.216;2022-11-30T09:33:02;38.13;;;21.87;;
13571;SDS011;6857;53.484;10.216;2022-11-30T09:35:28;44.93;;;22.20;;
13571;SDS011;6857;53.484;10.216;2022-11-30T09:37:54;40.63;;;21.67;;
13571;SDS011;6857;53.484;10.216;2022-11-30T09:40:20;37.67;;;21.73;;
13571;SDS011;6857;53.484;10.216;2022-11-30T09:45:24;43.47;;;22.70;;
13571;SDS011;6857;53.484;10.216;2022-11-30T09:50:22;43.53;;;22.43;;
13571;SDS011;6857;53.484;10.216;2022-11-30T09:52:56;40.07;;;22.33;;
13571;SDS011;6857;53.484;10.216;2022-11-30T09:55:24;42.60;;;23.77;;
13571;SDS011;6857;53.484;10.216;2022-11-30T09:57:52;43.03;;;23.33;;
13571;SDS011;6857;53.484;10.216;2022-11-30T10:00:20;40.17;;;22.87;;
13571;SDS011;6857;53.484;10.216;2022-11-30T10:02:50;42.13;;;23.30;;
13571;SDS011;6857;53.484;10.216;2022-11-30T10:05:18;41.33;;;22.17;;
13571;SDS011;6857;53.484;10.216;2022-11-30T10:15:59;44.37;;;23.67;;
13571;SDS011;6857;53.484;10.216;2022-11-30T10:18:34;49.07;;;24.30;;
13571;SDS011;6857;53.484;10.216;2022-11-30T10:21:05;41.50;;;22.43;;
13571;SDS011;6857;53.484;10.216;2022-11-30T10:23:46;44.20;;;23.90;;
13571;SDS011;6857;53.484;10.216;2022-11-30T10:26:14;48.07;;;24.43;;
13571;SDS011;6857;53.484;10.216;2022-11-30T10:31:11;46.40;;;24.90;;
13571;SDS011;6857;53.484;10.216;2022-11-30T10:33:39;47.67;;;24.33;;
13571;SDS011;6857;53.484;10.216;2022-11-30T10:36:11;45.80;;;24.60;;
13571;SDS011;6857;53.484;10.216;2022-11-30T10:38:44;65.97;;;37.73;;
13571;SDS011;6857;53.484;10.216;2022-11-30T10:41:16;44.00;;;24.77;;
13571;SDS011;6857;53.484;10.216;2022-11-30T10:43:57;50.50;;;27.33;;
13571;SDS011;6857;53.484;10.216;2022-11-30T10:46:27;43.60;;;23.00;;
13571;SDS011;6857;53.484;10.216;2022-11-30T10:49:02;49.13;;;27.63;;
13571;SDS011;6857;53.484;10.216;2022-11-30T10:51:29;43.13;;;24.10;;
13571;SDS011;6857;53.484;10.216;2022-11-30T10:53:56;42.63;;;23.00;;
13571;SDS011;6857;53.484;10.216;2022-11-30T10:56:22;42.87;;;23.23;;
13571;SDS011;6857;53.484;10.216;2022-11-30T11:01:29;45.30;;;24.13;;
13571;SDS011;6857;53.484;10.216;2022-11-30T11:04:05;55.10;;;29.87;;
13571;SDS011;6857;53.484;10.216;2022-11-30T11:06:32;50.30;;;28.73;;
13571;SDS011;6857;53.484;10.216;2022-11-30T11:08:58;49.93;;;28.30;;
13571;SDS011;6857;53.484;10.216;2022-11-30T11:11:24;77.50;;;44.30;;
13571;SDS011;6857;53.484;10.216;2022-11-30T11:13:51;46.10;;;23.53;;
13571;SDS011;6857;53.484;10.216;2022-11-30T11:16:17;62.97;;;32.47;;
13571;SDS011;6857;53.484;10.216;2022-11-30T11:19:01;51.83;;;26.87;;
13571;SDS011;6857;53.484;10.216;2022-11-30T11:21:27;54.53;;;28.17;;
13571;SDS011;6857;53.484;10.216;2022-11-30T11:23:53;53.07;;;26.87;;
13571;SDS011;6857;53.484;10.216;2022-11-30T11:26:21;56.67;;;28.13;;
13571;SDS011;6857;53.484;10.216;2022-11-30T11:28:48;71.97;;;37.97;;
13571;SDS011;6857;53.484;10.216;2022-11-30T11:34:00;55.17;;;27.23;;
13571;SDS011;6857;53.484;10.216;2022-11-30T11:36:31;56.10;;;26.67;;
13571;SDS011;6857;53.484;10.216;2022-11-30T11:38:57;59.90;;;27.17;;
13571;SDS011;6857;53.484;10.216;2022-11-30T11:41:34;55.67;;;27.33;;
13571;SDS011;6857;53.484;10.216;2022-11-30T11:46:37;61.20;;;27.43;;
13571;SDS011;6857;53.484;10.216;2022-11-30T11:49:20;62.10;;;30.00;;
13571;SDS011;6857;53.484;10.216;2022-11-30T11:51:47;62.93;;;29.57;;
13571;SDS011;6857;53.484;10.216;2022-11-30T11:54:26;70.53;;;32.63;;
13571;SDS011;6857;53.484;10.216;2022-11-30T11:56:53;71.77;;;31.50;;
13571;SDS011;6857;53.484;10.216;2022-11-30T12:02:12;67.73;;;32.87;;
13571;SDS011;6857;53.484;10.216;2022-11-30T12:09:54;70.53;;;31.40;;
13571;SDS011;6857;53.484;10.216;2022-11-30T12:12:20;77.23;;;34.27;;
13571;SDS011;6857;53.484;10.216;2022-11-30T12:14:46;79.43;;;35.40;;
13571;SDS011;6857;53.484;10.216;2022-11-30T12:17:29;83.17;;;39.40;;
13571;SDS011;6857;53.484;10.216;2022-11-30T12:22:36;76.23;;;33.73;;
13571;SDS011;6857;53.484;10.216;2022-11-30T12:36:35;77.07;;;33.50;;
13571;SDS011;6857;53.484;10.216;2022-11-30T12:46:06;79.13;;;33.23;;
13571;SDS011;6857;53.484;10.216;2022-11-30T12:48:37;79.57;;;34.07;;
13571;SDS011;6857;53.484;10.216;2022-11-30T12:51:11;85.13;;;36.40;;
13571;SDS011;6857;53.484;10.216;2022-11-30T12:53:48;91.57;;;36.83;;
13571;SDS011;6857;53.484;10.216;2022-11-30T12:56:36;77.57;;;32.60;;
13571;SDS011;6857;53.484;10.216;2022-11-30T12:59:07;96.47;;;38.37;;
13571;SDS011;6857;53.484;10.216;2022-11-30T13:06:56;80.20;;;35.73;;
13571;SDS011;6857;53.484;10.216;2022-11-30T13:09:28;78.30;;;34.80;;
13571;SDS011;6857;53.484;10.216;2022-11-30T13:11:56;86.43;;;36.00;;
13571;SDS011;6857;53.484;10.216;2022-11-30T13:14:24;87.43;;;38.63;;
13571;SDS011;6857;53.484;10.216;2022-11-30T13:16:58;82.83;;;35.63;;
13571;SDS011;6857;53.484;10.216;2022-11-30T13:22:13;89.73;;;38.07;;
13571;SDS011;6857;53.484;10.216;2022-11-30T13:24:41;86.40;;;36.47;;
13571;SDS011;6857;53.484;10.216;2022-11-30T13:27:28;86.73;;;36.30;;
13571;SDS011;6857;53.484;10.216;2022-11-30T13:32:32;84.63;;;34.90;;
13571;SDS011;6857;53.484;10.216;2022-11-30T13:37:43;77.97;;;36.00;;
13571;SDS011;6857;53.484;10.216;2022-11-30T13:40:18;83.53;;;35.73;;
13571;SDS011;6857;53.484;10.216;2022-11-30T13:42:46;80.77;;;34.97;;
13571;SDS011;6857;53.484;10.216;2022-11-30T13:47:38;85.67;;;36.37;;
13571;SDS011;6857;53.484;10.216;2022-11-30T13:50:05;89.37;;;36.20;;
13571;SDS011;6857;53.484;10.216;2022-11-30T13:56:30;87.33;;;35.10;;
13571;SDS011;6857;53.484;10.216;2022-11-30T13:58:12;89.43;;;35.47;;
13571;SDS011;6857;53.484;10.216;2022-11-30T14:10:42;93.43;;;39.43;;
13571;SDS011;6857;53.484;10.216;2022-11-30T14:20:44;78.37;;;35.53;;
13571;SDS011;6857;53.484;10.216;2022-11-30T14:23:58;82.83;;;36.37;;
13571;SDS011;6857;53.484;10.216;2022-11-30T14:26:09;81.43;;;35.57;;
13571;SDS011;6857;53.484;10.216;2022-11-30T14:31:07;84.60;;;35.00;;
13571;SDS011;6857;53.484;10.216;2022-11-30T14:33:48;87.17;;;35.30;;
13571;SDS011;6857;53.484;10.216;2022-11-30T14:36:16;88.63;;;35.63;;
13571;SDS011;6857;53.484;10.216;2022-11-30T14:38:42;95.57;;;37.43;;
13571;SDS011;6857;53.484;10.216;2022-11-30T14:41:22;95.67;;;37.17;;
13571;SDS011;6857;53.484;10.216;2022-11-30T14:44:01;94.13;;;37.07;;
13571;SDS011;6857;53.484;10.216;2022-11-30T14:46:28;89.30;;;36.80;;
13571;SDS011;6857;53.484;10.216;2022-11-30T14:49:04;80.43;;;35.50;;
13571;SDS011;6857;53.484;10.216;2022-11-30T14:51:31;86.47;;;35.83;;
13571;SDS011;6857;53.484;10.216;2022-11-30T14:53:59;90.53;;;36.33;;
13571;SDS011;6857;53.484;10.216;2022-11-30T14:58:57;81.73;;;35.73;;
13571;SDS011;6857;53.484;10.216;2022-11-30T15:01:26;86.47;;;34.53;;
13571;SDS011;6857;53.484;10.216;2022-11-30T15:03:54;90.37;;;36.30;;
13571;SDS011;6857;53.484;10.216;2022-11-30T15:06:21;83.30;;;36.80;;
13571;SDS011;6857;53.484;10.216;2022-11-30T15:08:51;77.10;;;33.30;;
13571;SDS011;6857;53.484;10.216;2022-11-30T15:11:18;81.97;;;35.53;;
13571;SDS011;6857;53.484;10.216;2022-11-30T15:13:48;78.53;;;35.70;;
13571;SDS011;6857;53.484;10.216;2022-11-30T15:16:24;77.60;;;34.50;;
13571;SDS011;6857;53.484;10.216;2022-11-30T15:18:51;81.37;;;35.23;;
13571;SDS011;6857;53.484;10.216;2022-11-30T15:21:22;77.37;;;35.40;;
13571;SDS011;6857;53.484;10.216;2022-11-30T15:23:52;73.63;;;36.10;;
13571;SDS011;6857;53.484;10.216;2022-11-30T15:26:30;80.83;;;36.60;;
13571;SDS011;6857;53.484;10.216;2022-11-30T15:29:06;83.17;;;34.63;;
13571;SDS011;6857;53.484;10.216;2022-11-30T15:31:36;82.20;;;33.57;;
13571;SDS011;6857;53.484;10.216;2022-11-30T15:34:03;75.90;;;33.30;;
13571;SDS011;6857;53.484;10.216;2022-11-30T15:36:36;74.43;;;34.47;;
13571;SDS011;6857;53.484;10.216;2022-11-30T15:39:05;75.47;;;34.03;;
13571;SDS011;6857;53.484;10.216;2022-11-30T15:41:32;78.70;;;34.57;;
13571;SDS011;6857;53.484;10.216;2022-11-30T15:43:58;83.33;;;34.60;;
13571;SDS011;6857;53.484;10.216;2022-11-30T15:46:27;75.30;;;34.20;;
13571;SDS011;6857;53.484;10.216;2022-11-30T15:49:02;78.83;;;35.17;;
13571;SDS011;6857;53.484;10.216;2022-11-30T15:51:35;83.90;;;35.40;;
13571;SDS011;6857;53.484;10.216;2022-11-30T15:54:01;79.17;;;34.63;;
13571;SDS011;6857;53.484;10.216;2022-11-30T15:56:27;81.43;;;35.37;;
13571;SDS011;6857;53.484;10.216;2022-11-30T16:01:25;82.13;;;36.03;;
13571;SDS011;6857;53.484;10.216;2022-11-30T16:04:10;78.93;;;36.20;;
13571;SDS011;6857;53.484;10.216;2022-11-30T16:06:44;86.80;;;36.07;;
13571;SDS011;6857;53.484;10.216;2022-11-30T16:09:20;98.53;;;45.63;;
13571;SDS011;6857;53.484;10.216;2022-11-30T16:11:51;81.53;;;36.27;;
13571;SDS011;6857;53.484;10.216;2022-11-30T16:14:18;85.70;;;37.70;;
13571;SDS011;6857;53.484;10.216;2022-11-30T16:16:44;89.00;;;37.23;;
13571;SDS011;6857;53.484;10.216;2022-11-30T16:19:10;94.47;;;38.43;;